Pagina principale
METAR-TAF:

METAR-TAF

Aeroporti :

Biserta, Tunisia

latitudine: 37-15N, longitudine: 009-48E, altezza: 5 m

Osservazione

Il bollettino è stato emesso 37 minuti fa, alle 20:00 UTC
Vento 10 kt da ovest
Temperature 24°C
Umidità 65%
Pressione 1011 hPa
Visibilità 10 km o più
Poco nuvoloso ad un'altezza di 2000 ft

METAR: DTTB 252000Z 28010KT 9999 FEW020 24/17 Q1011

Ora: 21:37 (20:37 UTC)

Previsione

Il bollettino è stato emesso 2 ore e 17 minuti fa, alle 18:20 UTC
Previsione valida dal 25 alle 19 UTC al 26 alle 04 UTC
Vento 16 kt da ovest/nord-ovest
Visibilità 10 km o più
Poco nuvoloso ad un'altezza di 2000 ft

TAF: DTTB 251820Z 2519/2604 30016KT 9999 FEW020

Osservazioni e previsioni meteorologiche di più di 4000 aeroporti (messaggi METAR e TAF).

Le stazioni disponibili sono rappresentate dai dischi gialli e rossi sulla carta.

Puntare il mouse per vedere il nome della stazione.

Clicca sopra per visualizzare le osservazioni e previsioni meteorologiche.

Per cambiare la mappa : fare clic sui pulsanti verdi con una croce nera per ingrandire, il pulsante verde con un trattino per diminuire, o sulla freccia verde per le mappe adiacenti.


METAR-TAF: